Time;durP1;ratioP1;P1;durP2;ratioP2;P2;SDS_P1;SDS_P2;PMS_P1;PMS_P2;Temp;Humidity;BMP_temperature;BMP_pressure;BME280_temperature;BME280_humidity;BME280_pressure;Samples;Min_cycle;Max_cycle;Signal;HPM_P1;HPM_P2
2023/12/22 00:00:08;;;;;;;6.33;0.70;;;;;;;5.33;75.54;98213.69;4976451;28;20046;-61
2023/12/22 00:02:33;;;;;;;3.50;0.50;;;;;;;5.24;76.04;98198.66;4964961;28;20078;-60
2023/12/22 00:04:59;;;;;;;6.50;1.27;;;;;;;5.15;76.82;98207.22;4968028;28;20051;-60
2023/12/22 00:07:24;;;;;;;6.17;1.03;;;;;;;5.10;76.96;98214.06;4971298;28;20763;-59
2023/12/22 00:09:50;;;;;;;6.00;0.80;;;;;;;5.05;77.09;98205.25;4971148;28;20066;-63
2023/12/22 00:12:15;;;;;;;7.00;0.80;;;;;;;5.01;76.85;98210.38;4971397;28;20086;-62
2023/12/22 00:14:40;;;;;;;2.63;0.47;;;;;;;4.98;76.40;98226.00;4971493;28;20039;-59
2023/12/22 00:17:06;;;;;;;7.57;1.70;;;;;;;4.95;76.54;98228.53;4971236;28;20115;-61
2023/12/22 00:19:31;;;;;;;5.33;0.90;;;;;;;4.92;76.32;98236.31;4970724;28;20042;-59
2023/12/22 00:21:58;;;;;;;5.43;1.07;;;;;;;4.87;76.26;98225.75;4971034;28;20121;-60
2023/12/22 00:24:23;;;;;;;3.95;0.75;;;;;;;4.88;75.80;98243.22;4971380;28;20039;-62
2023/12/22 00:26:49;;;;;;;3.25;0.88;;;;;;;4.90;75.48;98225.81;4971124;28;20069;-60
2023/12/22 00:29:14;;;;;;;7.40;1.13;;;;;;;4.93;74.76;98259.03;4970499;28;20065;-61
2023/12/22 00:31:39;;;;;;;8.63;0.83;;;;;;;4.94;75.10;98258.16;4971320;28;20034;-61
2023/12/22 00:34:05;;;;;;;10.10;1.63;;;;;;;4.94;74.69;98232.00;4970943;28;20038;-63
2023/12/22 00:36:30;;;;;;;6.07;0.97;;;;;;;4.96;74.75;98251.22;4970821;28;20105;-63
2023/12/22 00:38:55;;;;;;;10.10;1.20;;;;;;;4.97;74.53;98243.44;4970230;28;20035;-61
2023/12/22 00:41:21;;;;;;;6.03;1.00;;;;;;;4.95;75.02;98241.63;4971055;28;20077;-63
2023/12/22 00:43:46;;;;;;;5.63;0.70;;;;;;;4.95;75.70;98265.16;4970575;28;20043;-60
2023/12/22 00:46:13;;;;;;;4.13;1.17;;;;;;;4.97;76.49;98242.53;4970798;28;20368;-63
2023/12/22 00:48:38;;;;;;;4.75;0.70;;;;;;;4.96;77.52;98272.16;4970699;28;20034;-63
2023/12/22 00:51:07;;;;;;;12.50;1.20;;;;;;;4.94;77.85;98264.25;4969105;28;20105;-62
2023/12/22 00:53:32;;;;;;;5.78;0.93;;;;;;;4.91;78.62;98260.69;4974582;28;20404;-62
2023/12/22 00:55:57;;;;;;;4.20;0.80;;;;;;;4.87;79.22;98285.91;4974917;28;20027;-60
2023/12/22 00:58:23;;;;;;;4.77;0.40;;;;;;;4.84;79.86;98283.19;4974747;28;20074;-64
2023/12/22 01:00:48;;;;;;;11.23;1.17;;;;;;;4.82;80.28;98268.34;4984666;28;20125;-60
2023/12/22 01:03:14;;;;;;;7.33;1.07;;;;;;;4.79;80.32;98300.50;4974440;28;20047;-61
2023/12/22 01:05:39;;;;;;;6.53;0.80;;;;;;;4.79;80.49;98292.66;4974255;28;20035;-60
2023/12/22 01:08:05;;;;;;;6.73;0.63;;;;;;;4.75;80.99;98299.56;4974257;28;20459;-62
2023/12/22 01:10:30;;;;;;;4.00;0.73;;;;;;;4.76;81.26;98311.78;4973907;28;20035;-60
2023/12/22 01:12:55;;;;;;;6.43;1.27;;;;;;;4.83;81.01;98311.94;4963969;28;20403;-60
2023/12/22 01:15:22;;;;;;;6.57;1.60;;;;;;;4.88;80.79;98323.41;4971514;28;20035;-61
2023/12/22 01:17:47;;;;;;;14.40;1.15;;;;;;;4.93;80.52;98321.78;4974052;28;20038;-61
2023/12/22 01:20:13;;;;;;;7.30;1.27;;;;;;;4.97;80.30;98303.59;4973094;28;20109;-61
2023/12/22 01:22:38;;;;;;;8.03;1.37;;;;;;;5.00;80.28;98306.25;4973763;28;20030;-60
2023/12/22 01:25:05;;;;;;;4.00;1.27;;;;;;;5.03;80.12;98318.53;4973897;28;20623;-64
2023/12/22 01:27:30;;;;;;;6.80;1.63;;;;;;;5.04;80.03;98329.03;4972594;28;20282;-59
2023/12/22 01:29:56;;;;;;;9.32;1.30;;;;;;;5.03;80.31;98337.72;4973133;28;20043;-60
2023/12/22 01:32:21;;;;;;;5.27;0.90;;;;;;;4.96;80.58;98322.72;4973906;28;20043;-61
2023/12/22 01:34:47;;;;;;;7.70;1.00;;;;;;;4.93;80.81;98299.13;4973831;28;20430;-61
2023/12/22 01:37:12;;;;;;;9.73;1.30;;;;;;;4.88;81.14;98328.63;4973539;28;20041;-62
2023/12/22 01:39:37;;;;;;;4.07;0.90;;;;;;;4.84;81.56;98340.72;4973184;28;20278;-61
2023/12/22 01:42:03;;;;;;;6.33;0.97;;;;;;;4.83;81.66;98333.75;4973605;28;20038;-62
2023/12/22 01:44:29;;;;;;;7.35;1.10;;;;;;;4.82;81.62;98347.66;4973683;28;20138;-60
2023/12/22 01:46:55;;;;;;;5.33;0.77;;;;;;;4.84;81.74;98348.56;4973432;28;20695;-61
2023/12/22 01:49:21;;;;;;;6.85;0.85;;;;;;;4.82;81.93;98341.56;4972666;28;20492;-62
2023/12/22 01:51:47;;;;;;;7.00;1.00;;;;;;;4.81;81.94;98318.84;4973687;28;20069;-61
2023/12/22 01:54:15;;;;;;;6.40;0.87;;;;;;;4.85;81.35;98345.13;4973587;28;20073;-60
2023/12/22 01:56:42;;;;;;;8.70;1.38;;;;;;;4.90;80.95;98347.84;4973317;28;20046;-60
2023/12/22 01:59:08;;;;;;;8.65;1.25;;;;;;;4.90;81.01;98337.38;4974749;28;20081;-60
2023/12/22 02:01:35;;;;;;;8.37;1.10;;;;;;;4.87;81.08;98332.09;4978910;28;20042;-61
2023/12/22 02:04:00;;;;;;;10.67;1.10;;;;;;;4.88;81.35;98347.81;4973010;28;20292;-62
2023/12/22 02:06:26;;;;;;;4.13;0.80;;;;;;;4.91;81.33;98347.00;4973123;28;20023;-61
2023/12/22 02:08:53;;;;;;;6.72;0.85;;;;;;;4.86;81.57;98338.16;4972768;28;20034;-60
2023/12/22 02:11:19;;;;;;;8.37;1.37;;;;;;;4.81;82.05;98356.34;4973320;28;20026;-61
2023/12/22 02:13:45;;;;;;;10.18;1.25;;;;;;;4.82;82.36;98368.59;4973098;28;20062;-60
2023/12/22 02:16:28;;;;;;;5.17;0.80;;;;;;;4.85;82.29;98370.38;4973019;28;20035;-61
2023/12/22 02:18:55;;;;;;;10.68;1.15;;;;;;;4.83;82.54;98359.00;4972480;28;20047;-61
2023/12/22 02:21:21;;;;;;;5.57;1.17;;;;;;;4.87;82.62;98372.19;4973214;28;20034;-62
2023/12/22 02:23:49;;;;;;;15.53;1.77;;;;;;;4.92;82.54;98380.16;4973134;28;20078;-60
2023/12/22 02:26:27;;;;;;;4.43;0.82;;;;;;;4.91;82.71;98387.13;4972788;28;20063;-62
2023/12/22 02:28:56;;;;;;;6.32;1.05;;;;;;;4.94;82.49;98373.22;4972254;28;20061;-59
2023/12/22 02:31:52;;;;;;;7.67;1.37;;;;;;;4.93;82.41;98387.16;4972828;28;20031;-62
2023/12/22 02:34:19;;;;;;;5.40;1.15;;;;;;;4.90;82.70;98368.75;4969788;28;20443;-63
2023/12/22 02:36:46;;;;;;;6.55;0.65;;;;;;;4.88;82.87;98360.00;4972476;28;20062;-60
2023/12/22 02:39:13;;;;;;;8.77;1.20;;;;;;;4.87;82.68;98363.47;4971858;28;20026;-60
2023/12/22 02:41:39;;;;;;;8.65;1.10;;;;;;;4.87;82.88;98371.31;4972551;28;20506;-59
2023/12/22 02:44:05;;;;;;;8.83;1.33;;;;;;;4.84;82.96;98355.53;4972498;28;20043;-61
2023/12/22 02:46:30;;;;;;;9.63;1.77;;;;;;;4.83;83.11;98367.75;4972386;28;20118;-62
2023/12/22 02:48:55;;;;;;;4.53;0.87;;;;;;;4.85;82.75;98376.50;4972097;28;20109;-61
2023/12/22 02:51:21;;;;;;;13.20;3.03;;;;;;;4.83;82.83;98378.22;4972367;28;20728;-60
2023/12/22 02:53:46;;;;;;;4.90;0.73;;;;;;;4.80;83.12;98367.66;4972404;28;20074;-62
2023/12/22 02:56:12;;;;;;;13.87;1.27;;;;;;;4.77;83.16;98368.47;4972164;28;20399;-62
2023/12/22 02:58:37;;;;;;;5.63;0.97;;;;;;;4.77;83.05;98371.09;4972112;28;20038;-61
2023/12/22 03:01:02;;;;;;;3.87;0.60;;;;;;;4.78;83.21;98374.59;4979270;28;20369;-62
2023/12/22 03:03:28;;;;;;;6.30;1.03;;;;;;;4.83;83.05;98364.25;4972607;28;20027;-61
2023/12/22 03:05:53;;;;;;;4.47;0.90;;;;;;;4.79;83.13;98374.59;4972109;28;20558;-60
2023/12/22 03:08:18;;;;;;;2.17;0.60;;;;;;;4.77;83.55;98358.00;4972193;28;20114;-62
2023/12/22 03:10:44;;;;;;;5.73;0.87;;;;;;;4.74;83.55;98367.47;4971640;28;20481;-61
2023/12/22 03:13:09;;;;;;;3.10;0.57;;;;;;;4.74;83.96;98384.06;4972369;28;20398;-60
2023/12/22 03:15:34;;;;;;;4.70;0.50;;;;;;;4.73;83.91;98374.47;4971549;28;20466;-61
2023/12/22 03:18:00;;;;;;;4.90;0.63;;;;;;;4.75;84.14;98379.72;4980120;28;20118;-64
2023/12/22 03:20:25;;;;;;;4.50;0.70;;;;;;;4.72;84.23;98372.69;4971642;28;20575;-61
2023/12/22 03:22:51;;;;;;;5.50;0.73;;;;;;;4.69;84.44;98367.38;4971727;28;20123;-61
2023/12/22 03:25:16;;;;;;;3.53;0.73;;;;;;;4.73;84.39;98377.09;4971727;28;20809;-62
2023/12/22 03:27:41;;;;;;;5.40;0.60;;;;;;;4.74;84.37;98378.81;4971744;28;20133;-62
2023/12/22 03:30:07;;;;;;;6.80;0.80;;;;;;;4.73;84.58;98368.34;4971390;28;20407;-63
2023/12/22 03:32:32;;;;;;;10.70;0.98;;;;;;;4.74;84.59;98370.09;4971820;28;20042;-59
2023/12/22 03:34:58;;;;;;;9.87;1.00;;;;;;;4.77;84.39;98386.78;4971142;28;20039;-59
2023/12/22 03:37:23;;;;;;;4.77;0.70;;;;;;;4.77;84.26;98381.53;4970313;28;20102;-61
2023/12/22 03:39:49;;;;;;;7.37;0.73;;;;;;;4.78;84.23;98378.06;4971579;28;20122;-62
2023/12/22 03:42:14;;;;;;;4.03;0.70;;;;;;;4.81;83.88;98377.28;4971700;28;20039;-60
2023/12/22 05:45:44;;;;;;;1.67;0.30;;;;;;;3.33;100.00;98359.13;4965899;28;20487;-62
2023/12/22 05:48:09;;;;;;;2.90;0.50;;;;;;;3.28;100.00;98372.84;4973132;28;20130;-60
2023/12/22 05:50:34;;;;;;;4.90;0.60;;;;;;;3.25;100.00;98364.94;4972165;28;20392;-60
2023/12/22 05:53:00;;;;;;;5.73;0.77;;;;;;;3.24;100.00;98352.75;4973067;28;20030;-61
2023/12/22 05:55:26;;;;;;;4.68;0.65;;;;;;;3.22;100.00;98360.50;4972788;28;20027;-61
2023/12/22 05:57:51;;;;;;;2.33;0.30;;;;;;;3.25;100.00;98367.56;4973391;28;20150;-60
2023/12/22 06:00:17;;;;;;;6.03;0.63;;;;;;;3.26;100.00;98366.69;4978567;28;20388;-61
2023/12/22 06:02:42;;;;;;;6.07;0.40;;;;;;;3.27;100.00;98379.78;4971589;28;20043;-59
2023/12/22 06:05:08;;;;;;;3.05;0.43;;;;;;;3.29;100.00;98377.25;4973038;28;20043;-59
2023/12/22 06:07:33;;;;;;;4.43;1.00;;;;;;;3.30;100.00;98379.03;4973264;28;20031;-62
2023/12/22 06:09:58;;;;;;;5.10;0.67;;;;;;;3.32;100.00;98377.31;4972441;28;20045;-61
2023/12/22 06:12:24;;;;;;;6.60;0.50;;;;;;;3.33;100.00;98385.22;4973130;28;20110;-61
2023/12/22 06:14:49;;;;;;;3.20;0.30;;;;;;;3.36;100.00;98384.41;4972984;28;20038;-61
2023/12/22 06:17:14;;;;;;;1.33;0.30;;;;;;;3.39;99.86;98381.91;4972839;28;20373;-61
2023/12/22 06:19:40;;;;;;;2.17;0.40;;;;;;;3.42;99.02;98393.31;4972721;28;20109;-62
2023/12/22 06:22:05;;;;;;;2.93;0.43;;;;;;;3.45;99.01;98389.94;4972953;28;20150;-60
2023/12/22 06:24:31;;;;;;;2.93;0.30;;;;;;;3.50;98.14;98383.13;4972791;28;20035;-62
2023/12/22 06:26:56;;;;;;;3.47;0.43;;;;;;;3.51;97.48;98400.53;4972581;28;20043;-62
2023/12/22 06:29:22;;;;;;;3.00;0.37;;;;;;;3.53;96.49;98388.44;4972029;28;20046;-60
2023/12/22 06:31:51;;;;;;;2.55;0.43;;;;;;;3.52;96.55;98376.22;4972359;28;20042;-61
2023/12/22 06:34:19;;;;;;;1.55;0.30;;;;;;;3.52;96.42;98376.22;4971171;28;20104;-61
2023/12/22 06:36:44;;;;;;;1.33;0.33;;;;;;;3.54;97.00;98385.00;4972252;28;20111;-61
2023/12/22 06:39:10;;;;;;;2.47;0.40;;;;;;;3.58;96.50;98380.75;4971606;28;20047;-61
2023/12/22 06:41:35;;;;;;;2.33;0.20;;;;;;;3.62;96.55;98369.56;4972467;28;20106;-63
2023/12/22 06:44:00;;;;;;;2.57;0.37;;;;;;;3.64;96.56;98386.16;4972266;28;20121;-61
2023/12/22 06:46:27;;;;;;;2.60;0.53;;;;;;;3.65;96.76;98378.34;4971958;28;20045;-63
2023/12/22 06:48:53;;;;;;;3.22;0.50;;;;;;;3.68;96.53;98378.47;4971147;28;20041;-60
2023/12/22 06:51:30;;;;;;;2.10;0.47;;;;;;;3.73;96.81;98366.44;4971437;28;20041;-62
2023/12/22 06:53:56;;;;;;;5.68;0.63;;;;;;;3.70;96.33;98376.75;4970685;28;20049;-64
2023/12/22 06:56:23;;;;;;;2.33;0.30;;;;;;;3.70;96.75;98379.38;4971977;28;20419;-62
2023/12/22 06:58:50;;;;;;;4.15;0.80;;;;;;;3.73;96.96;98365.56;4971635;28;20463;-62
2023/12/22 07:01:23;;;;;;;1.88;0.40;;;;;;;3.74;96.92;98390.81;4978809;28;20038;-61
2023/12/22 07:03:49;;;;;;;2.83;0.40;;;;;;;3.74;96.88;98406.47;4972129;28;20041;-59
2023/12/22 07:06:16;;;;;;;2.55;0.47;;;;;;;3.79;96.64;98400.56;4971592;28;20519;-60
2023/12/22 07:08:42;;;;;;;3.77;0.40;;;;;;;3.85;95.84;98416.38;4971735;28;20551;-60
2023/12/22 07:11:08;;;;;;;4.57;0.50;;;;;;;3.92;94.98;98410.53;4971667;28;20483;-61
2023/12/22 07:13:34;;;;;;;1.33;0.30;;;;;;;3.95;93.80;98404.47;4971425;28;20041;-59
2023/12/22 07:15:59;;;;;;;3.33;0.40;;;;;;;4.01;93.37;98414.22;4971459;28;20039;-63
2023/12/22 07:18:25;;;;;;;5.50;0.60;;;;;;;4.04;92.81;98433.50;4969329;28;20047;-62
2023/12/22 07:20:50;;;;;;;3.42;0.30;;;;;;;4.08;92.23;98430.16;4971641;28;20031;-63
2023/12/22 07:23:16;;;;;;;5.40;1.17;;;;;;;4.15;91.09;98457.31;4971930;28;20030;-61
2023/12/22 07:25:41;;;;;;;6.87;0.40;;;;;;;4.13;90.66;98456.38;4971791;28;20082;-63
2023/12/22 07:28:07;;;;;;;4.35;0.60;;;;;;;4.11;90.79;98461.56;4972212;28;20038;-62
2023/12/22 07:30:32;;;;;;;1.87;0.40;;;;;;;4.11;90.27;98464.16;4972373;28;20137;-62
2023/12/22 07:32:57;;;;;;;6.07;0.93;;;;;;;4.17;89.90;98466.09;4971291;28;20511;-61
2023/12/22 07:35:23;;;;;;;2.77;0.40;;;;;;;4.22;88.73;98467.09;4971441;28;20105;-61
2023/12/22 07:37:48;;;;;;;4.90;1.00;;;;;;;4.21;88.24;98463.59;4971711;28;20497;-64
2023/12/22 07:40:14;;;;;;;3.90;0.70;;;;;;;4.20;87.92;98471.38;4971025;28;20289;-61
2023/12/22 07:42:39;;;;;;;2.47;0.40;;;;;;;4.19;87.60;98465.28;4970968;28;20407;-59
2023/12/22 07:45:05;;;;;;;2.97;0.70;;;;;;;4.22;87.47;98474.94;4970795;28;20050;-64
2023/12/22 07:47:31;;;;;;;5.53;0.80;;;;;;;4.26;87.36;98459.41;4969779;28;20038;-62
2023/12/22 07:49:57;;;;;;;2.47;0.40;;;;;;;4.26;87.04;98459.41;4969794;28;20507;-63
2023/12/22 07:52:22;;;;;;;3.50;0.50;;;;;;;4.27;86.63;98463.78;4971629;28;20195;-59
2023/12/22 07:54:47;;;;;;;3.57;0.40;;;;;;;4.31;86.29;98473.47;4971176;28;20042;-61
2023/12/22 07:57:13;;;;;;;5.93;0.67;;;;;;;4.31;85.94;98463.03;4971298;28;20102;-62
2023/12/22 07:59:38;;;;;;;6.88;0.68;;;;;;;4.35;85.32;98483.19;4976199;28;20046;-63
2023/12/22 08:02:04;;;;;;;2.07;0.50;;;;;;;4.36;85.24;98491.91;4972567;28;20121;-61
2023/12/22 08:04:29;;;;;;;3.50;0.50;;;;;;;4.38;85.11;98487.63;4970747;28;20078;-61
2023/12/22 08:06:55;;;;;;;3.40;0.60;;;;;;;4.38;84.37;98511.13;4971094;28;20043;-62
2023/12/22 08:09:22;;;;;;;2.47;0.70;;;;;;;4.35;84.87;98511.03;4969387;28;20495;-63
2023/12/22 08:11:52;;;;;;;2.92;0.40;;;;;;;4.34;85.29;98515.38;4970963;28;20081;-62
2023/12/22 08:14:17;;;;;;;5.38;0.50;;;;;;;4.28;85.32;98524.78;4971231;28;20035;-62
2023/12/22 08:16:44;;;;;;;3.23;0.37;;;;;;;4.29;85.87;98534.38;4969850;28;20105;-63
2023/12/22 08:19:09;;;;;;;3.65;0.60;;;;;;;4.22;86.50;98514.13;4970331;28;20491;-62
2023/12/22 08:21:35;;;;;;;1.67;0.37;;;;;;;4.12;86.95;98509.47;4971227;28;20085;-63
2023/12/22 08:24:00;;;;;;;1.53;0.40;;;;;;;4.00;88.13;98501.25;4970953;28;20054;-65
2023/12/22 08:26:25;;;;;;;2.13;0.30;;;;;;;3.92;88.88;98514.97;4970946;28;20031;-62
2023/12/22 08:28:51;;;;;;;2.13;0.40;;;;;;;3.85;89.20;98522.53;4970254;28;20035;-61
2023/12/22 08:31:16;;;;;;;2.97;0.50;;;;;;;3.82;89.29;98528.56;4971361;28;20487;-63
2023/12/22 08:33:43;;;;;;;3.17;0.43;;;;;;;3.79;89.20;98527.59;4970839;28;20062;-62
2023/12/22 08:36:09;;;;;;;5.22;0.60;;;;;;;3.75;88.77;98529.19;4970897;28;20053;-62
2023/12/22 08:38:34;;;;;;;1.63;0.40;;;;;;;3.74;89.03;98532.66;4970742;28;20030;-63
2023/12/22 08:40:59;;;;;;;2.63;0.40;;;;;;;3.79;88.66;98535.41;4969195;28;20110;-63
2023/12/22 08:43:25;;;;;;;7.10;0.87;;;;;;;3.84;88.55;98536.47;4970548;28;20093;-64
2023/12/22 08:45:50;;;;;;;2.57;0.50;;;;;;;3.85;88.36;98546.03;4970978;28;20561;-62
2023/12/22 08:48:15;;;;;;;6.53;0.93;;;;;;;3.89;87.85;98541.00;4970731;28;20285;-64
2023/12/22 08:50:41;;;;;;;9.77;1.10;;;;;;;3.99;87.13;98541.28;4970744;28;20046;-66
2023/12/22 08:53:06;;;;;;;5.20;0.70;;;;;;;4.09;86.42;98552.06;4970896;28;20037;-64
2023/12/22 08:55:31;;;;;;;8.90;0.60;;;;;;;4.15;85.79;98557.44;4971069;28;20053;-64
2023/12/22 08:57:57;;;;;;;6.87;0.63;;;;;;;4.17;85.44;98565.34;4970808;28;20114;-64
2023/12/22 09:00:22;;;;;;;6.07;0.87;;;;;;;4.19;85.42;98563.69;4978267;28;20921;-63
2023/12/22 09:02:48;;;;;;;4.80;1.07;;;;;;;4.20;84.65;98552.38;4970696;28;20093;-63
2023/12/22 09:05:13;;;;;;;6.20;0.70;;;;;;;4.16;84.96;98560.94;4970531;28;20206;-64
2023/12/22 09:07:39;;;;;;;2.93;0.50;;;;;;;4.25;84.31;98566.47;4969699;28;20039;-63
2023/12/22 09:10:04;;;;;;;6.53;1.05;;;;;;;4.26;83.43;98595.25;4969828;28;20050;-65
2023/12/22 09:12:30;;;;;;;2.90;0.63;;;;;;;4.28;82.93;98577.91;4971147;28;20038;-64
2023/12/22 09:14:55;;;;;;;3.33;0.50;;;;;;;4.44;81.59;98579.25;4974150;28;20138;-65
2023/12/22 09:17:20;;;;;;;4.40;0.73;;;;;;;4.50;80.72;98568.97;4974222;28;20865;-64
2023/12/22 09:19:46;;;;;;;8.93;0.77;;;;;;;4.59;80.32;98573.59;4973656;28;20460;-64
2023/12/22 09:22:12;;;;;;;7.30;0.90;;;;;;;4.63;79.66;98567.63;4974039;28;20114;-65
2023/12/22 09:24:38;;;;;;;1.83;0.32;;;;;;;4.69;79.44;98571.28;4974082;28;20523;-64
2023/12/22 09:27:04;;;;;;;7.25;0.60;;;;;;;4.76;78.40;98582.81;4974106;28;20071;-63
2023/12/22 09:29:31;;;;;;;5.97;0.87;;;;;;;4.76;78.19;98583.72;4978832;28;20038;-64
2023/12/22 09:31:57;;;;;;;4.30;0.70;;;;;;;4.68;77.94;98590.47;4976366;28;20048;-65
2023/12/22 09:34:22;;;;;;;5.97;0.80;;;;;;;4.70;77.73;98601.81;4974273;28;20043;-63
2023/12/22 09:36:48;;;;;;;6.30;1.15;;;;;;;4.76;77.29;98604.63;4973990;28;20124;-64
2023/12/22 09:39:16;;;;;;;4.13;0.70;;;;;;;4.89;76.64;98608.47;4973500;28;20463;-63
2023/12/22 09:41:47;;;;;;;8.85;1.00;;;;;;;4.94;76.04;98595.53;4974001;28;20098;-63
2023/12/22 09:44:18;;;;;;;10.27;0.90;;;;;;;4.94;76.13;98603.38;4974242;28;20058;-63
2023/12/22 09:46:43;;;;;;;7.60;1.35;;;;;;;4.98;76.14;98626.19;4974245;28;20047;-63
2023/12/22 09:49:09;;;;;;;9.00;1.07;;;;;;;4.98;76.05;98620.97;4973483;28;20491;-63
2023/12/22 09:51:36;;;;;;;6.30;1.00;;;;;;;5.08;76.01;98616.00;4973865;28;20407;-64
2023/12/22 09:54:02;;;;;;;5.25;1.05;;;;;;;5.17;76.33;98604.94;4973580;28;20030;-63
2023/12/22 09:56:29;;;;;;;6.28;0.93;;;;;;;5.15;76.25;98624.94;4973608;28;20074;-63
2023/12/22 09:58:56;;;;;;;6.18;0.98;;;;;;;5.07;76.24;98627.34;4973070;28;20031;-63
2023/12/22 10:01:22;;;;;;;4.13;0.70;;;;;;;5.11;75.92;98623.06;4980748;28;20027;-63
2023/12/22 10:03:48;;;;;;;4.47;0.60;;;;;;;5.15;74.86;98624.94;4973446;28;20043;-62
2023/12/22 10:06:14;;;;;;;7.17;1.30;;;;;;;5.18;74.88;98641.59;4973618;28;20694;-62
2023/12/22 10:08:39;;;;;;;5.05;0.80;;;;;;;5.30;74.46;98640.16;4973248;28;20471;-62
2023/12/22 10:11:06;;;;;;;7.77;0.83;;;;;;;5.37;73.79;98652.59;4973782;28;20069;-64
2023/12/22 10:13:35;;;;;;;5.03;0.85;;;;;;;5.44;73.30;98625.72;4973527;28;20038;-63
2023/12/22 10:16:01;;;;;;;11.70;1.63;;;;;;;5.49;72.81;98637.22;4973053;28;20059;-64
2023/12/22 10:18:26;;;;;;;10.13;0.80;;;;;;;5.57;71.98;98647.06;4972966;28;20414;-64
2023/12/22 10:20:52;;;;;;;9.73;1.13;;;;;;;5.58;72.18;98658.41;4972767;28;20045;-63
2023/12/22 10:23:17;;;;;;;6.10;1.30;;;;;;;5.60;70.63;98626.19;4973177;28;20034;-63
2023/12/22 10:25:43;;;;;;;8.80;1.00;;;;;;;5.64;70.75;98643.75;4972919;28;20055;-64
2023/12/22 10:28:10;;;;;;;7.53;1.15;;;;;;;5.64;69.89;98643.75;4972653;28;20411;-62
2023/12/22 10:30:36;;;;;;;10.60;1.43;;;;;;;5.57;70.07;98599.94;4972747;28;20782;-63
2023/12/22 10:33:04;;;;;;;7.28;1.13;;;;;;;5.55;70.20;98619.06;4972921;28;20562;-62
2023/12/22 10:35:29;;;;;;;4.03;0.63;;;;;;;5.51;69.99;98641.66;4972857;28;20034;-63
2023/12/22 10:37:55;;;;;;;9.13;1.00;;;;;;;5.58;70.42;98629.59;4972389;28;20039;-64
2023/12/22 10:40:22;;;;;;;6.53;0.90;;;;;;;5.76;69.67;98642.31;4971520;28;20031;-63
2023/12/22 10:42:49;;;;;;;4.95;0.77;;;;;;;5.85;68.60;98655.63;4972548;28;20415;-63
2023/12/22 10:45:17;;;;;;;11.53;1.73;;;;;;;5.81;68.37;98646.81;4972456;28;20050;-63
2023/12/22 10:47:42;;;;;;;5.53;1.10;;;;;;;5.77;67.90;98646.72;4972660;28;20039;-63
2023/12/22 10:50:11;;;;;;;6.87;0.90;;;;;;;5.79;68.40;98652.84;4971729;28;20544;-63
2023/12/22 10:52:36;;;;;;;12.63;1.02;;;;;;;5.88;68.81;98659.25;4972572;28;20121;-63
2023/12/22 10:55:02;;;;;;;5.23;1.07;;;;;;;5.95;69.24;98655.97;4971168;28;20047;-63
2023/12/22 10:57:28;;;;;;;4.05;0.68;;;;;;;5.92;68.97;98655.00;4970597;28;20486;-63
2023/12/22 10:59:57;;;;;;;7.50;0.80;;;;;;;5.90;69.57;98656.69;4979592;28;20034;-63
2023/12/22 11:02:22;;;;;;;4.75;0.68;;;;;;;5.88;69.96;98653.13;4972336;28;20475;-63
2023/12/22 11:05:01;;;;;;;15.30;1.27;;;;;;;5.86;70.09;98657.41;4970909;28;20097;-62
2023/12/22 11:07:28;;;;;;;4.60;0.97;;;;;;;5.90;70.29;98646.19;4972005;28;20290;-63
2023/12/22 11:09:57;;;;;;;3.92;0.95;;;;;;;6.02;69.94;98668.34;4971613;28;20111;-67
2023/12/22 11:12:24;;;;;;;7.50;0.65;;;;;;;6.07;68.37;98651.00;4971482;28;20033;-64
2023/12/22 11:14:52;;;;;;;4.82;0.73;;;;;;;6.04;68.53;98639.56;4972120;28;20110;-63
2023/12/22 11:17:22;;;;;;;8.48;1.30;;;;;;;6.11;67.97;98648.47;4964182;28;20041;-64
2023/12/22 11:19:49;;;;;;;2.97;0.50;;;;;;;6.09;67.80;98630.09;4971540;28;20081;-63
2023/12/22 11:22:17;;;;;;;12.88;0.93;;;;;;;6.00;67.57;98661.31;4971677;28;20031;-63
2023/12/22 11:24:45;;;;;;;15.55;1.05;;;;;;;5.94;67.89;98627.97;4971884;28;20121;-63
2023/12/22 11:27:12;;;;;;;9.50;0.98;;;;;;;5.88;67.64;98654.00;4971602;28;20031;-63
2023/12/22 11:29:40;;;;;;;7.32;1.30;;;;;;;5.86;68.76;98639.09;4971600;28;20031;-64
2023/12/22 11:32:06;;;;;;;2.20;0.33;;;;;;;5.86;68.64;98660.94;4971867;28;20039;-63
2023/12/22 11:34:35;;;;;;;4.88;0.68;;;;;;;5.86;67.72;98655.69;4971869;28;20053;-63
2023/12/22 11:37:03;;;;;;;8.30;1.40;;;;;;;5.85;68.18;98655.63;4971486;28;20491;-62
2023/12/22 11:39:29;;;;;;;8.68;0.90;;;;;;;5.80;68.87;98660.75;4971364;28;20061;-65
2023/12/22 11:41:56;;;;;;;8.63;1.02;;;;;;;5.88;68.84;98642.63;4971895;28;20069;-63
2023/12/22 11:44:22;;;;;;;5.10;0.90;;;;;;;5.95;68.78;98639.34;4971699;28;20051;-63
2023/12/22 11:46:48;;;;;;;8.32;1.30;;;;;;;5.97;68.81;98648.16;4971481;28;20056;-64
2023/12/22 11:49:13;;;;;;;8.60;1.07;;;;;;;6.02;69.16;98643.88;4970777;28;20065;-62
2023/12/22 11:51:39;;;;;;;6.10;1.33;;;;;;;6.06;68.82;98649.25;4970661;28;20049;-62
2023/12/22 11:54:43;;;;;;;9.07;1.37;;;;;;;6.03;68.68;98648.28;4971725;28;20038;-63
2023/12/22 11:57:28;;;;;;;5.03;0.70;;;;;;;6.07;68.64;98650.13;4971494;28;20045;-63
2023/12/22 12:00:07;;;;;;;3.05;0.50;;;;;;;6.08;68.46;98657.13;4978526;28;20046;-64
2023/12/22 12:02:40;;;;;;;6.72;1.20;;;;;;;6.09;68.74;98656.28;4971590;28;20031;-62
2023/12/22 12:05:07;;;;;;;5.65;1.00;;;;;;;6.10;67.89;98633.59;4971578;28;20039;-64
2023/12/22 12:07:44;;;;;;;4.70;0.60;;;;;;;6.08;67.64;98672.84;4971507;28;20070;-63
2023/12/22 12:10:14;;;;;;;2.95;0.85;;;;;;;6.14;68.20;98657.28;4970740;28;20056;-63
2023/12/22 12:12:40;;;;;;;16.05;1.30;;;;;;;6.19;68.50;98660.91;4971498;28;20030;-64
2023/12/22 12:15:08;;;;;;;5.37;0.90;;;;;;;6.26;68.25;98677.69;4970073;28;20039;-63
2023/12/22 12:17:37;;;;;;;7.00;0.90;;;;;;;6.30;68.65;98674.28;4971371;28;20031;-65
2023/12/22 12:20:05;;;;;;;4.32;0.50;;;;;;;6.22;68.16;98671.47;4969506;28;20062;-63
2023/12/22 12:22:31;;;;;;;4.53;0.57;;;;;;;6.16;68.01;98662.59;4971096;28;20031;-63
2023/12/22 12:24:56;;;;;;;3.97;0.63;;;;;;;6.18;67.81;98671.34;4971121;28;20043;-63
2023/12/22 12:27:22;;;;;;;7.97;0.77;;;;;;;6.20;68.21;98673.19;4971528;28;20034;-65
2023/12/22 12:29:47;;;;;;;13.93;1.10;;;;;;;6.27;67.88;98671.56;4970711;28;20042;-63
2023/12/22 12:32:17;;;;;;;7.03;0.70;;;;;;;6.33;68.04;98662.13;4971305;28;20042;-65
2023/12/22 12:34:43;;;;;;;5.65;0.60;;;;;;;6.35;67.70;98659.56;4971241;28;20035;-64
2023/12/22 12:37:09;;;;;;;4.72;0.50;;;;;;;6.31;68.18;98670.84;4971166;28;20037;-66
2023/12/22 12:39:36;;;;;;;5.63;1.00;;;;;;;6.21;67.97;98674.97;4970359;28;20063;-64
2023/12/22 12:42:06;;;;;;;6.78;0.68;;;;;;;6.08;68.01;98657.13;4971391;28;20591;-63
2023/12/22 12:44:32;;;;;;;7.97;0.80;;;;;;;5.99;68.92;98667.38;4970969;28;20089;-60
2023/12/22 12:46:58;;;;;;;4.70;0.60;;;;;;;5.97;69.32;98654.25;4970850;28;20058;-63
2023/12/22 12:49:27;;;;;;;5.60;1.07;;;;;;;5.97;69.23;98666.47;4973853;28;20495;-61
2023/12/22 12:51:53;;;;;;;8.18;0.70;;;;;;;5.95;68.67;98658.56;4974561;28;20147;-64
2023/12/22 12:54:19;;;;;;;10.53;1.33;;;;;;;5.89;68.83;98647.03;4973486;28;20117;-63
2023/12/22 12:56:45;;;;;;;9.20;1.00;;;;;;;5.85;69.65;98656.53;4974791;28;20475;-65
2023/12/22 12:59:16;;;;;;;8.73;0.70;;;;;;;5.86;69.40;98657.41;4976467;28;20039;-63
2023/12/22 13:01:43;;;;;;;9.70;1.80;;;;;;;5.82;69.69;98663.44;4979601;28;20178;-66
2023/12/22 13:04:09;;;;;;;5.00;0.52;;;;;;;5.73;70.18;98663.16;4974330;28;20067;-63
2023/12/22 13:06:34;;;;;;;3.60;0.47;;;;;;;5.97;69.92;98653.38;4974296;28;20062;-65
2023/12/22 13:09:00;;;;;;;13.97;1.10;;;;;;;6.11;69.28;98644.13;4974147;28;20046;-64
2023/12/22 13:11:32;;;;;;;8.90;1.20;;;;;;;6.14;68.85;98667.78;4974615;28;20534;-65
2023/12/22 13:13:58;;;;;;;8.38;1.17;;;;;;;6.12;68.51;98661.59;4974456;28;20061;-64
2023/12/22 13:16:29;;;;;;;7.30;1.10;;;;;;;6.11;68.59;98651.09;4974145;28;20035;-65
2023/12/22 13:18:56;;;;;;;5.47;0.75;;;;;;;6.03;68.15;98637.78;4972882;28;20417;-66
2023/12/22 13:21:22;;;;;;;9.15;0.75;;;;;;;5.94;67.64;98669.00;4974346;28;20113;-64
2023/12/22 13:24:14;;;;;;;7.60;0.70;;;;;;;5.86;67.39;98644.31;4974473;28;20034;-64
2023/12/22 13:26:40;;;;;;;5.15;0.60;;;;;;;5.81;67.21;98661.66;4974223;28;20101;-64
2023/12/22 13:29:10;;;;;;;11.25;1.40;;;;;;;5.77;67.84;98655.44;4973928;28;20077;-63
2023/12/22 13:31:45;;;;;;;7.60;0.88;;;;;;;5.75;67.95;98656.25;4974864;28;20537;-64
2023/12/22 13:34:12;;;;;;;4.78;1.00;;;;;;;5.75;68.25;98661.47;4974938;28;20579;-64
2023/12/22 13:36:38;;;;;;;4.60;0.77;;;;;;;5.76;68.80;98655.41;4974657;28;20133;-65
2023/12/22 13:39:05;;;;;;;13.13;1.27;;;;;;;5.81;68.89;98661.66;4973980;28;20118;-63